BTI285 EVRA-EYVI
Flight info
| Callsign | BTI285 |
|---|---|
| Flight time | 0h 34m |
| Altitude | 25000 |
| Route | ERIVA DCT PIFBO |
| Aircraft | B735/M-SDFHIW/S |
Departure
| Time | 2026-04-28 16:44 |
|---|---|
| Airport | Riga International Airport (EVRA) |
Arrival
| Time | 2026-04-28 17:19 |
|---|---|
| Airport | Vilnius International Airport (EYVI) |
| Time | Latitude | Longitude | Altitude | Speed | Heading |
|---|---|---|---|---|---|
| 2026-04-28 16:06 | 56.92544 | 23.97797 | 43 ft | 0 kts | 185° |
| 2026-04-28 16:27 | 56.92568 | 23.97804 | 44 ft | 4 kts | 200° |
| 2026-04-28 16:28 | 56.92589 | 23.97828 | 44 ft | 4 kts | 231° |
| 2026-04-28 16:28 | 56.92595 | 23.97848 | 39 ft | 4 kts | 262° |
| 2026-04-28 16:28 | 56.92596 | 23.97861 | 39 ft | 0 kts | 275° |
| 2026-04-28 16:31 | 56.92597 | 23.97831 | 44 ft | 5 kts | 275° |
| 2026-04-28 16:31 | 56.92600 | 23.97762 | 44 ft | 6 kts | 275° |
| 2026-04-28 16:31 | 56.92604 | 23.97682 | 44 ft | 7 kts | 275° |
| 2026-04-28 16:31 | 56.92608 | 23.97601 | 44 ft | 3 kts | 267° |
| 2026-04-28 16:32 | 56.92601 | 23.97559 | 44 ft | 2 kts | 240° |
| 2026-04-28 16:32 | 56.92572 | 23.97546 | 44 ft | 5 kts | 187° |
| 2026-04-28 16:32 | 56.92531 | 23.97540 | 44 ft | 7 kts | 185° |
| 2026-04-28 16:33 | 56.92478 | 23.97532 | 44 ft | 8 kts | 185° |
| 2026-04-28 16:33 | 56.92459 | 23.97529 | 43 ft | 9 kts | 185° |
| 2026-04-28 16:33 | 56.92352 | 23.97512 | 44 ft | 10 kts | 185° |
| 2026-04-28 16:33 | 56.92284 | 23.97500 | 43 ft | 10 kts | 185° |
| 2026-04-28 16:34 | 56.92215 | 23.97489 | 44 ft | 10 kts | 185° |
| 2026-04-28 16:34 | 56.92146 | 23.97477 | 44 ft | 10 kts | 185° |
| 2026-04-28 16:34 | 56.92099 | 23.97469 | 44 ft | 10 kts | 185° |
| 2026-04-28 16:34 | 56.92030 | 23.97457 | 42 ft | 10 kts | 185° |
| 2026-04-28 16:35 | 56.91960 | 23.97445 | 44 ft | 10 kts | 185° |
| 2026-04-28 16:35 | 56.91890 | 23.97433 | 44 ft | 10 kts | 186° |
| 2026-04-28 16:35 | 56.91815 | 23.97419 | 44 ft | 11 kts | 186° |
| 2026-04-28 16:35 | 56.91711 | 23.97399 | 44 ft | 12 kts | 186° |
| 2026-04-28 16:36 | 56.91657 | 23.97389 | 44 ft | 12 kts | 186° |
| 2026-04-28 16:36 | 56.91576 | 23.97374 | 44 ft | 12 kts | 185° |
| 2026-04-28 16:36 | 56.91495 | 23.97361 | 44 ft | 12 kts | 185° |
| 2026-04-28 16:36 | 56.91412 | 23.97347 | 44 ft | 12 kts | 185° |
| 2026-04-28 16:37 | 56.91353 | 23.97312 | 44 ft | 8 kts | 210° |
| 2026-04-28 16:37 | 56.91316 | 23.97252 | 41 ft | 7 kts | 230° |
| 2026-04-28 16:37 | 56.91281 | 23.97172 | 44 ft | 7 kts | 239° |
| 2026-04-28 16:38 | 56.91271 | 23.97137 | 44 ft | 0 kts | 243° |
| 2026-04-28 16:38 | 56.91271 | 23.97136 | 44 ft | 0 kts | 243° |
| 2026-04-28 16:42 | 56.91269 | 23.97132 | 44 ft | 3 kts | 243° |
| 2026-04-28 16:43 | 56.91258 | 23.97074 | 44 ft | 6 kts | 253° |
| 2026-04-28 16:43 | 56.91256 | 23.97006 | 45 ft | 6 kts | 277° |
| 2026-04-28 16:43 | 56.91272 | 23.96951 | 45 ft | 4 kts | 315° |
| 2026-04-28 16:43 | 56.91308 | 23.96938 | 47 ft | 19 kts | 2° |
| 2026-04-28 16:44 | 56.91649 | 23.96987 | 44 ft | 80 kts | 6° |
| 2026-04-28 16:44 | 56.92419 | 23.97114 | 46 ft | 142 kts | 2° |
| 2026-04-28 16:44 | 56.93512 | 23.97229 | 509 ft | 164 kts | 358° |
| 2026-04-28 16:44 | 56.94675 | 23.97488 | 1129 ft | 176 kts | 7° |
| 2026-04-28 16:45 | 56.95944 | 23.97769 | 1887 ft | 190 kts | 4° |
| 2026-04-28 16:45 | 56.97325 | 23.98029 | 2604 ft | 210 kts | 3° |
| 2026-04-28 16:45 | 56.98834 | 23.98286 | 3316 ft | 227 kts | 3° |
| 2026-04-28 16:45 | 57.00390 | 23.98850 | 4402 ft | 235 kts | 22° |
| 2026-04-28 16:46 | 57.01639 | 24.00890 | 5478 ft | 248 kts | 50° |
| 2026-04-28 16:46 | 57.02364 | 24.03860 | 6455 ft | 268 kts | 73° |
| 2026-04-28 16:46 | 57.02283 | 24.07358 | 7441 ft | 284 kts | 103° |
| 2026-04-28 16:46 | 57.01260 | 24.10491 | 8515 ft | 294 kts | 133° |
| 2026-04-28 16:47 | 56.99566 | 24.12637 | 9583 ft | 299 kts | 153° |
| 2026-04-28 16:47 | 56.97646 | 24.14188 | 10536 ft | 305 kts | 157° |
| 2026-04-28 16:47 | 56.95642 | 24.15695 | 11255 ft | 319 kts | 156° |
| 2026-04-28 16:47 | 56.93547 | 24.17344 | 11908 ft | 334 kts | 155° |
| 2026-04-28 16:48 | 56.91424 | 24.19067 | 12878 ft | 339 kts | 155° |
| 2026-04-28 16:48 | 56.89246 | 24.20850 | 13755 ft | 346 kts | 155° |
| 2026-04-28 16:48 | 56.87033 | 24.22660 | 14630 ft | 352 kts | 155° |
| 2026-04-28 16:48 | 56.84790 | 24.24486 | 15631 ft | 352 kts | 155° |
| 2026-04-28 16:49 | 56.82534 | 24.26319 | 16391 ft | 361 kts | 155° |
| 2026-04-28 16:49 | 56.80224 | 24.28194 | 17325 ft | 362 kts | 155° |
| 2026-04-28 16:49 | 56.77918 | 24.30065 | 18244 ft | 366 kts | 155° |
| 2026-04-28 16:49 | 56.75579 | 24.31963 | 18966 ft | 371 kts | 155° |
| 2026-04-28 16:50 | 56.73211 | 24.33884 | 19829 ft | 372 kts | 156° |
| 2026-04-28 16:50 | 56.70832 | 24.35812 | 20577 ft | 376 kts | 156° |
| 2026-04-28 16:50 | 56.68419 | 24.37769 | 21240 ft | 383 kts | 155° |
| 2026-04-28 16:50 | 56.65956 | 24.39761 | 21747 ft | 392 kts | 156° |
| 2026-04-28 16:51 | 56.63474 | 24.41781 | 22738 ft | 389 kts | 155° |
| 2026-04-28 16:51 | 56.60985 | 24.43849 | 23204 ft | 400 kts | 156° |
| 2026-04-28 16:51 | 56.58443 | 24.45894 | 24006 ft | 399 kts | 155° |
| 2026-04-28 16:51 | 56.55914 | 24.47909 | 24415 ft | 402 kts | 158° |
| 2026-04-28 16:52 | 56.53335 | 24.49894 | 24645 ft | 401 kts | 156° |
| 2026-04-28 16:52 | 56.50763 | 24.51969 | 24896 ft | 406 kts | 157° |
| 2026-04-28 16:52 | 56.48191 | 24.54043 | 25105 ft | 406 kts | 155° |
| 2026-04-28 16:52 | 56.45572 | 24.56217 | 25197 ft | 416 kts | 155° |
| 2026-04-28 16:53 | 56.42919 | 24.58361 | 25190 ft | 418 kts | 156° |
| 2026-04-28 16:53 | 56.40266 | 24.60483 | 25180 ft | 416 kts | 156° |
| 2026-04-28 16:53 | 56.37607 | 24.62525 | 25184 ft | 414 kts | 159° |
| 2026-04-28 16:53 | 56.34890 | 24.64086 | 25173 ft | 414 kts | 167° |
| 2026-04-28 16:54 | 56.32066 | 24.65047 | 25181 ft | 414 kts | 173° |
| 2026-04-28 16:54 | 56.29209 | 24.65674 | 25177 ft | 413 kts | 175° |
| 2026-04-28 16:54 | 56.26364 | 24.66266 | 25172 ft | 409 kts | 174° |
| 2026-04-28 16:54 | 56.24462 | 24.66714 | 25184 ft | 407 kts | 173° |
| 2026-04-28 16:55 | 56.20735 | 24.67691 | 25174 ft | 411 kts | 172° |
| 2026-04-28 16:55 | 56.17893 | 24.68470 | 25189 ft | 411 kts | 172° |
| 2026-04-28 16:55 | 56.15070 | 24.69247 | 25178 ft | 409 kts | 171° |
| 2026-04-28 16:55 | 56.12279 | 24.70048 | 25162 ft | 403 kts | 172° |
| 2026-04-28 16:56 | 56.09521 | 24.70775 | 25160 ft | 400 kts | 172° |
| 2026-04-28 16:56 | 56.06749 | 24.71484 | 25177 ft | 403 kts | 172° |
| 2026-04-28 16:56 | 56.03964 | 24.72209 | 25174 ft | 406 kts | 172° |
| 2026-04-28 16:56 | 56.01145 | 24.72951 | 25162 ft | 407 kts | 172° |
| 2026-04-28 16:57 | 55.98323 | 24.73706 | 25178 ft | 410 kts | 172° |
| 2026-04-28 16:57 | 55.95513 | 24.74460 | 25164 ft | 408 kts | 172° |
| 2026-04-28 16:57 | 55.92739 | 24.75201 | 25163 ft | 406 kts | 172° |
| 2026-04-28 16:57 | 55.89931 | 24.75950 | 25159 ft | 409 kts | 172° |
| 2026-04-28 16:58 | 55.87113 | 24.76701 | 25175 ft | 408 kts | 172° |
| 2026-04-28 16:58 | 55.84299 | 24.77442 | 25163 ft | 411 kts | 172° |
| 2026-04-28 16:58 | 55.81464 | 24.78193 | 25169 ft | 412 kts | 172° |
| 2026-04-28 16:58 | 55.78619 | 24.78948 | 25166 ft | 413 kts | 172° |
| 2026-04-28 16:59 | 55.75788 | 24.79699 | 25155 ft | 410 kts | 172° |
| 2026-04-28 16:59 | 55.72973 | 24.80444 | 25147 ft | 407 kts | 172° |
| 2026-04-28 16:59 | 55.70207 | 24.81179 | 25152 ft | 405 kts | 172° |
| 2026-04-28 16:59 | 55.67406 | 24.81913 | 25178 ft | 408 kts | 172° |
| 2026-04-28 17:00 | 55.64598 | 24.82644 | 25145 ft | 404 kts | 172° |
| 2026-04-28 17:00 | 55.61855 | 24.83377 | 25148 ft | 390 kts | 172° |
| 2026-04-28 17:00 | 55.59209 | 24.84080 | 25117 ft | 380 kts | 172° |
| 2026-04-28 17:00 | 55.56600 | 24.84769 | 24553 ft | 378 kts | 172° |
| 2026-04-28 17:01 | 55.53988 | 24.85456 | 23808 ft | 381 kts | 172° |
| 2026-04-28 17:01 | 55.51355 | 24.86147 | 22935 ft | 384 kts | 172° |
| 2026-04-28 17:01 | 55.48705 | 24.86844 | 22092 ft | 386 kts | 172° |
| 2026-04-28 17:01 | 55.46043 | 24.87545 | 21303 ft | 386 kts | 172° |
| 2026-04-28 17:02 | 55.43424 | 24.88231 | 20564 ft | 385 kts | 172° |
| 2026-04-28 17:02 | 55.41645 | 24.88698 | 20073 ft | 384 kts | 172° |
| 2026-04-28 17:02 | 55.38150 | 24.89615 | 19157 ft | 381 kts | 172° |
| 2026-04-28 17:02 | 55.35530 | 24.90302 | 18518 ft | 379 kts | 171° |
| 2026-04-28 17:03 | 55.30363 | 24.91653 | 17145 ft | 372 kts | 171° |
| 2026-04-28 17:03 | 55.27810 | 24.92223 | 16522 ft | 367 kts | 174° |
| 2026-04-28 17:03 | 55.25276 | 24.92540 | 15985 ft | 361 kts | 176° |
| 2026-04-28 17:04 | 55.20466 | 24.93410 | 15442 ft | 336 kts | 174° |
| 2026-04-28 17:04 | 55.18186 | 24.93854 | 14988 ft | 332 kts | 174° |
| 2026-04-28 17:05 | 55.13633 | 24.94632 | 14079 ft | 325 kts | 175° |
| 2026-04-28 17:05 | 55.11391 | 24.95033 | 13579 ft | 322 kts | 175° |
| 2026-04-28 17:05 | 55.09166 | 24.95424 | 13057 ft | 320 kts | 175° |
| 2026-04-28 17:06 | 55.04835 | 24.96172 | 12629 ft | 295 kts | 175° |
| 2026-04-28 17:06 | 55.02865 | 24.96521 | 12761 ft | 290 kts | 175° |
| 2026-04-28 17:06 | 54.98854 | 24.97203 | 12536 ft | 284 kts | 175° |
| 2026-04-28 17:07 | 54.96885 | 24.97532 | 12254 ft | 284 kts | 175° |
| 2026-04-28 17:07 | 54.94921 | 24.97864 | 11870 ft | 283 kts | 176° |
| 2026-04-28 17:07 | 54.92963 | 24.98197 | 11498 ft | 281 kts | 176° |
| 2026-04-28 17:07 | 54.91024 | 24.98526 | 11131 ft | 280 kts | 176° |
| 2026-04-28 17:08 | 54.89082 | 24.98856 | 10689 ft | 280 kts | 176° |
| 2026-04-28 17:08 | 54.87141 | 24.99184 | 10278 ft | 284 kts | 176° |
| 2026-04-28 17:08 | 54.85160 | 24.99519 | 10510 ft | 292 kts | 176° |
| 2026-04-28 17:08 | 54.83085 | 24.99874 | 10641 ft | 303 kts | 176° |
| 2026-04-28 17:09 | 54.80951 | 25.00240 | 9794 ft | 314 kts | 176° |
| 2026-04-28 17:09 | 54.78736 | 25.00616 | 8606 ft | 324 kts | 176° |
| 2026-04-28 17:09 | 54.76482 | 25.00997 | 7670 ft | 324 kts | 175° |
| 2026-04-28 17:09 | 54.74257 | 25.01381 | 6996 ft | 317 kts | 175° |
| 2026-04-28 17:10 | 54.72107 | 25.01743 | 6451 ft | 306 kts | 175° |
| 2026-04-28 17:10 | 54.70012 | 25.02095 | 5902 ft | 298 kts | 175° |
| 2026-04-28 17:10 | 54.67983 | 25.02436 | 5499 ft | 287 kts | 175° |
| 2026-04-28 17:10 | 54.66045 | 25.02762 | 5236 ft | 272 kts | 175° |
| 2026-04-28 17:11 | 54.64199 | 25.03071 | 5020 ft | 259 kts | 175° |
| 2026-04-28 17:11 | 54.62449 | 25.03364 | 4794 ft | 249 kts | 176° |
| 2026-04-28 17:11 | 54.60715 | 25.03653 | 4572 ft | 251 kts | 176° |
| 2026-04-28 17:11 | 54.58987 | 25.03942 | 4392 ft | 252 kts | 176° |
| 2026-04-28 17:12 | 54.57251 | 25.04235 | 4191 ft | 250 kts | 176° |
| 2026-04-28 17:12 | 54.55531 | 25.04525 | 4025 ft | 248 kts | 176° |
| 2026-04-28 17:12 | 54.53804 | 25.04833 | 3993 ft | 250 kts | 174° |
| 2026-04-28 17:12 | 54.52105 | 25.05426 | 3979 ft | 249 kts | 166° |
| 2026-04-28 17:13 | 54.50420 | 25.06131 | 3990 ft | 249 kts | 167° |
| 2026-04-28 17:13 | 54.48756 | 25.06986 | 3989 ft | 250 kts | 159° |
| 2026-04-28 17:13 | 54.47196 | 25.08340 | 3971 ft | 251 kts | 144° |
| 2026-04-28 17:13 | 54.45883 | 25.10262 | 3970 ft | 247 kts | 129° |
| 2026-04-28 17:14 | 54.44898 | 25.12647 | 3969 ft | 243 kts | 112° |
| 2026-04-28 17:14 | 54.44549 | 25.15427 | 3937 ft | 236 kts | 79° |
| 2026-04-28 17:14 | 54.45087 | 25.17977 | 3975 ft | 224 kts | 46° |
| 2026-04-28 17:14 | 54.46285 | 25.19538 | 3997 ft | 214 kts | 14° |
| 2026-04-28 17:15 | 54.47746 | 25.19740 | 3797 ft | 209 kts | 351° |
| 2026-04-28 17:15 | 54.49186 | 25.19409 | 3486 ft | 208 kts | 351° |
| 2026-04-28 17:15 | 54.50132 | 25.19364 | 3293 ft | 207 kts | 5° |
| 2026-04-28 17:15 | 54.51469 | 25.20162 | 3050 ft | 202 kts | 23° |
| 2026-04-28 17:16 | 54.52702 | 25.21239 | 2753 ft | 194 kts | 18° |
| 2026-04-28 17:16 | 54.54324 | 25.22306 | 2414 ft | 181 kts | 16° |
| 2026-04-28 17:16 | 54.55074 | 25.22812 | 2311 ft | 168 kts | 17° |
| 2026-04-28 17:16 | 54.56123 | 25.23548 | 2036 ft | 159 kts | 16° |
| 2026-04-28 17:17 | 54.57116 | 25.24229 | 1827 ft | 144 kts | 15° |
| 2026-04-28 17:17 | 54.57986 | 25.24829 | 1581 ft | 127 kts | 15° |
| 2026-04-28 17:17 | 54.58752 | 25.25345 | 1393 ft | 114 kts | 13° |
| 2026-04-28 17:17 | 54.59516 | 25.25855 | 1219 ft | 121 kts | 14° |
| 2026-04-28 17:18 | 54.60276 | 25.26437 | 1215 ft | 120 kts | 15° |
| 2026-04-28 17:18 | 54.61089 | 25.26971 | 941 ft | 123 kts | 17° |
| 2026-04-28 17:18 | 54.61846 | 25.27514 | 747 ft | 121 kts | 11° |
| 2026-04-28 17:18 | 54.62624 | 25.28003 | 615 ft | 115 kts | 17° |
| 2026-04-28 17:19 | 54.63214 | 25.28454 | 606 ft | 52 kts | 20° |
| 2026-04-28 17:19 | 54.63329 | 25.28525 | 609 ft | 0 kts | 19° |